Data for 07/09/2014

Time Sea-Level Adjusted Pressure Absolute Pressure Temperature Relative Humidity Dew Point   
(mb) (inHg) (mb) (inHg) (C) (F) (%) (C) (F)
00:05 1019 30.09 848 25.04 20.3 68.6 40 6.3 43.3
00:10 1019 30.09 848 25.04 20.3 68.5 40 6.3 43.3
00:15 1019 30.09 848 25.04 20.2 68.4 40 6.5 43.7
00:20 1019 30.09 848 25.04 20 68.1 41 6.4 43.6
00:25 1019 30.09 848 25.04 20 67.9 41 6.4 43.5
00:30 1019 30.09 848 25.04 19.9 67.9 41 6.5 43.7
00:35 1019 30.09 848 25.04 19.9 67.8 41 6.4 43.5
00:40 1019 30.09 848 25.04 19.9 67.8 41 6.4 43.5
00:45 1019 30.09 848 25.04 19.9 67.8 41 6.5 43.6
00:50 1019 30.09 848 25.04 19.7 67.5 42 6.6 43.9
00:55 1019 30.09 848 25.04 19.7 67.5 42 6.4 43.6
01:00 1019 30.09 848 25.04 19.7 67.5 42 6.5 43.7
01:05 1019 30.09 848 25.04 19.6 67.3 42 6.5 43.7
01:10 1019 30.09 848 25.04 19.6 67.4 42 6.5 43.8
01:15 1019 30.09 848 25.04 19.5 67.1 43 6.6 43.9
01:20 1019 30.09 848 25.04 19.4 67 42 6.5 43.7
01:25 1019 30.09 848 25.04 19.5 67.1 43 6.6 43.9
01:30 1019 30.09 848 25.04 19.4 66.9 43 6.6 43.9
01:35 1019 30.09 848 25.04 19.3 66.8 43 6.6 43.9
01:40 1019 30.09 848 25.04 19.2 66.6 44 6.7 44.1
01:45 1019 30.09 848 25.04 19.1 66.4 44 6.9 44.3
01:50 1019 30.09 848 25.04 18.9 66.1 45 6.8 44.2
01:55 1019 30.09 849 25.07 18.8 65.9 45 6.8 44.2
02:00 1019 30.09 849 25.07 18.7 65.7 45 6.8 44.3
02:05 1019 30.09 849 25.07 18.6 65.4 46 6.8 44.2
02:10 1019 30.09 849 25.07 18.4 65.2 47 6.9 44.4
02:15 1019 30.09 849 25.07 18.2 64.8 47 7 44.6
02:20 1019 30.09 849 25.07 18.1 64.5 48 7 44.6
02:25 1019 30.09 848 25.04 17.8 64 49 7.1 44.8
02:30 1019 30.09 849 25.07 17.5 63.4 50 7.1 44.8
02:35 1019 30.09 849 25.07 17.4 63.3 50 6.9 44.5
02:40 1019 30.09 849 25.07 17.4 63.4 50 7 44.5
02:45 1019 30.09 848 25.04 17.4 63.3 50 7 44.6
02:50 1019 30.09 849 25.07 17.3 63.2 50 7 44.6
02:55 1019 30.09 849 25.07 17.2 62.9 51 7.2 45
03:00 1019 30.09 849 25.07 16.9 62.4 53 7.2 45
03:05 1019 30.09 849 25.07 16.6 62 53 7.2 44.9
03:10 1019 30.09 849 25.07 16.6 61.9 53 7.1 44.7
03:15 1019 30.09 849 25.07 16.7 62 52 7 44.6
03:20 1019 30.09 849 25.07 16.8 62.3 52 7 44.5
03:25 1020 30.12 849 25.07 16.9 62.4 55 7.9 46.3
03:30 1020 30.12 849 25.07 16.5 61.7 55 7.6 45.6
03:35 1020 30.12 849 25.07 16.4 61.5 55 7.5 45.5
03:40 1020 30.12 849 25.07 16.3 61.3 56 7.6 45.6
03:45 1020 30.12 849 25.07 16.2 61.2 56 7.6 45.7
03:50 1020 30.12 849 25.07 16.2 61.1 57 7.6 45.8
03:55 1020 30.12 849 25.07 16.1 61 57 7.7 45.9
04:00 1020 30.12 849 25.07 16 60.7 58 7.8 46
04:05 1020 30.12 849 25.07 15.7 60.3 59 7.9 46.2
04:10 1020 30.12 849 25.07 15.7 60.3 59 7.9 46.2
04:15 1020 30.12 849 25.07 15.5 59.9 61 8 46.5
04:20 1020 30.12 849 25.07 15.5 59.8 58 7.4 45.3
04:25 1020 30.12 849 25.07 15.8 60.4 58 7.6 45.7
04:30 1020 30.12 849 25.07 15.7 60.3 58 7.6 45.7
04:35 1020 30.12 849 25.07 15.7 60.3 58 7.7 45.8
04:40 1020 30.12 849 25.07 15.6 60.1 60 7.9 46.2
04:45 1020 30.12 849 25.07 15.4 59.8 60 7.7 45.8
04:50 1020 30.12 849 25.07 15.5 59.8 60 7.9 46.2
04:55 1020 30.12 849 25.07 15.4 59.7 60 7.7 45.9
05:00 1020 30.12 849 25.07 15.4 59.7 61 7.9 46.2
05:05 1019 30.09 849 25.07 15.4 59.6 60 7.8 46
05:10 1019 30.09 849 25.07 15.5 60 59 7.7 45.9
05:15 1020 30.12 849 25.07 15.7 60.2 59 7.8 46
05:20 1020 30.12 849 25.07 15.7 60.3 59 7.8 46.1
05:25 1020 30.12 849 25.07 15.8 60.5 58 7.7 45.9
05:30 1020 30.12 849 25.07 16 60.9 56 7.4 45.4
05:35 1020 30.12 849 25.07 16.3 61.3 57 7.8 46.1
05:40 1020 30.12 849 25.07 16.2 61.1 58 8.1 46.6
05:45 1020 30.12 849 25.07 16 60.7 60 8.3 46.9
05:50 1020 30.12 849 25.07 15.7 60.3 61 8.2 46.8
05:55 1020 30.12 849 25.07 15.8 60.4 60 8 46.4
06:00 1020 30.12 849 25.07 16 60.8 59 8.2 46.7
06:05 1020 30.12 849 25.07 16.2 61.2 58 8.1 46.6
06:10 1020 30.12 849 25.07 16.6 61.9 55 7.6 45.8
06:15 1020 30.12 849 25.07 16.8 62.2 54 7.6 45.7
06:20 1020 30.12 849 25.07 17 62.6 55 8 46.4
06:25 1020 30.12 849 25.07 17.1 62.7 54 7.9 46.2
06:30 1020 30.12 849 25.07 17.4 63.2 55 8.3 46.9
06:35 1020 30.12 849 25.07 17.7 63.8 53 8.2 46.8
06:40 1020 30.12 849 25.07 17.9 64.1 53 8.4 47.1
06:45 1020 30.12 849 25.07 18.3 64.9 53 8.7 47.6
06:50 1020 30.12 849 25.07 18.6 65.4 50 8.2 46.8
06:55 1020 30.12 849 25.07 18.6 65.6 51 8.5 47.3
07:00 1020 30.12 849 25.07 18.9 66 49 8.1 46.5
07:05 1020 30.12 849 25.07 19.4 66.9 49 8.6 47.4
07:10 1020 30.12 849 25.07 19.9 67.7 47 8.5 47.3
07:15 1020 30.12 849 25.07 20.3 68.5 46 8.5 47.4
07:20 1020 30.12 849 25.07 20.7 69.3 44 8.2 46.8
07:25 1020 30.12 849 25.07 21 69.8 44 8.4 47.1
07:30 1020 30.12 849 25.07 21 69.8 43 8 46.4
07:35 1020 30.12 849 25.07 21.2 70.1 43 8.3 46.9
07:40 1020 30.12 849 25.07 21 69.8 44 8.4 47
07:45 1020 30.12 849 25.07 21 69.8 44 8.5 47.4
07:50 1020 30.12 849 25.07 21.5 70.6 42 8.2 46.8
07:55 1020 30.12 849 25.07 22 71.5 41 8.4 47.1
08:00 1020 30.12 849 25.07 22.1 71.8 41 8.3 46.9
08:05 1020 30.12 849 25.07 22.3 72.2 43 9.2 48.6
08:10 1020 30.12 849 25.07 22.1 71.7 41 8.5 47.3
08:15 1020 30.12 849 25.07 22.5 72.5 40 8.4 47.1
08:20 1020 30.12 849 25.07 22.2 72 40 8.3 46.9
08:25 1020 30.12 849 25.07 22.8 73.1 39 8.4 47.2
08:30 1020 30.12 849 25.07 22.3 72.1 41 8.6 47.5
08:35 1020 30.12 849 25.07 22.5 72.6 37 7.4 45.4
08:40 1020 30.12 849 25.07 22.5 72.6 40 8.6 47.4
08:45 1020 30.12 849 25.07 22.4 72.4 40 8.2 46.8
08:50 1020 30.12 849 25.07 23.2 73.7 38 8.1 46.6
08:55 1020 30.12 849 25.07 23.3 74 39 8.8 47.9
09:00 1020 30.12 849 25.07 23.9 74.9 36 8.2 46.7
09:05 1020 30.12 849 25.07 23 73.3 37 7.8 46.1
09:10 1020 30.12 849 25.07 22.9 73.2 39 8.3 46.9
09:15 1020 30.12 849 25.07 23.4 74 38 8.5 47.3
09:20 1019 30.09 849 25.07 23.3 73.9 39 8.9 48.1
09:25 1019 30.09 849 25.07 22.7 72.9 40 8.5 47.3
09:30 1019 30.09 849 25.07 23.4 74 39 8.6 47.6
09:35 1019 30.09 849 25.07 24.1 75.3 36 8.5 47.2
09:40 1019 30.09 849 25.07 24.9 76.8 35 8.7 47.7
09:45 1019 30.09 849 25.07 23.9 75 36 8.3 46.9
09:50 1019 30.09 849 25.07 23.9 75 35 7.5 45.5
09:55 1019 30.09 848 25.04 24.9 76.8 34 8.1 46.6
10:00 1019 30.09 848 25.04 25.3 77.6 33 8.1 46.6
10:05 1019 30.09 848 25.04 24.9 76.8 35 8.8 47.9
10:10 1019 30.09 848 25.04 25.2 77.4 36 9.2 48.6
10:15 1019 30.09 848 25.04 24.8 76.7 34 8.1 46.6
10:20 1019 30.09 848 25.04 25.7 78.2 33 8.4 47.1
10:25 1019 30.09 848 25.04 25.3 77.5 35 8.9 48
10:30 1019 30.09 848 25.04 24.9 76.8 36 8.9 48
10:35 1019 30.09 848 25.04 24.9 76.8 35 8.8 47.8
10:40 1019 30.09 848 25.04 25.3 77.5 34 8.3 47
10:45 1019 30.09 848 25.04 25.5 78 36 9.6 49.2
10:50 1019 30.09 848 25.04 24.9 76.8 38 9.9 49.9
10:55 1019 30.09 848 25.04 24.3 75.7 37 8.8 47.9
11:00 1019 30.09 848 25.04 24.6 76.3 36 8.9 48
11:05 1019 30.09 848 25.04 25.8 78.5 33 8.5 47.2
11:10 1019 30.09 848 25.04 26.4 79.4 33 8.9 47.9
11:15 1019 30.09 848 25.04 26 78.9 33 9 48.1
11:20 1019 30.09 848 25.04 26 78.9 34 9 48.2
11:25 1019 30.09 848 25.04 25.7 78.3 34 9 48.2
11:30 1019 30.09 848 25.04 25.7 78.3 33 8.7 47.6
11:35 1019 30.09 848 25.04 27 80.7 32 9 48.3
11:40 1018 30.06 848 25.04 26.2 79.2 34 9.2 48.6
11:45 1018 30.06 848 25.04 26.5 79.6 34 9.4 48.9
11:50 1018 30.06 848 25.04 27.4 81.2 31 9 48.1
11:55 1018 30.06 848 25.04 28.2 82.7 30 9.5 49
12:00 1018 30.06 847 25.01 27.6 81.6 31 9 48.2
12:05 1018 30.06 847 25.01 27.5 81.5 31 8.9 48.1
12:10 1018 30.06 847 25.01 26.9 80.4 31 8.7 47.6
12:15 1018 30.06 847 25.01 26.8 80.3 31 8.5 47.3
12:20 1018 30.06 847 25.01 27.7 81.9 29 8.4 47.1
12:25 1018 30.06 847 25.01 28.1 82.6 30 9.1 48.4
12:30 1018 30.06 847 25.01 27.2 81 30 8.3 46.9
12:35 1018 30.06 847 25.01 27.6 81.7 29 8.2 46.8
12:40 1018 30.06 847 25.01 27.5 81.6 29 8.2 46.8
12:45 1018 30.06 847 25.01 27.5 81.4 30 8.6 47.5
12:50 1018 30.06 847 25.01 27.4 81.3 29 8.2 46.7
12:55 1018 30.06 847 25.01 27.5 81.6 29 8.1 46.5
13:00 1018 30.06 847 25.01 27.7 81.9 30 8.9 48.1
13:05 1018 30.06 847 25.01 27.4 81.3 30 8.5 47.4
13:10 1018 30.06 847 25.01 27.8 82.1 30 9 48.3
13:15 1018 30.06 847 25.01 28 82.3 29 8.7 47.6
13:20 1018 30.06 847 25.01 27.9 82.2 30 9.1 48.4
13:25 1017 30.03 847 25.01 28.4 83.1 28 8.7 47.7
13:30 1017 30.03 847 25.01 28.5 83.3 29 8.8 47.8
13:35 1018 30.06 847 25.01 28.8 83.8 28 9 48.2
13:40 1017 30.03 847 25.01 29.5 85.1 27 9 48.2
13:45 1017 30.03 847 25.01 29.5 85 28 9.3 48.7
13:50 1017 30.03 847 25.01 28.7 83.6 29 9 48.2
13:55 1017 30.03 847 25.01 28.5 83.3 28 8.5 47.4
14:00 1017 30.03 847 25.01 27.9 82.3 30 9.1 48.3
14:05 1017 30.03 847 25.01 28.3 83 30 9.3 48.7
14:10 1017 30.03 846 24.98 28.5 83.3 30 9.5 49.1
14:15 1017 30.03 846 24.98 28.5 83.3 29 9.1 48.3
14:20 1017 30.03 846 24.98 28.4 83.2 28 8.4 47.1
14:25 1017 30.03 846 24.98 28.8 83.8 27 8.4 47.2
14:30 1017 30.03 846 24.98 29 84.1 27 8.2 46.8
14:35 1017 30.03 846 24.98 29.4 85 27 8.6 47.4
14:40 1017 30.03 846 24.98 28.8 83.9 27 8.5 47.3
14:45 1017 30.03 846 24.98 29.4 85 25 7.4 45.4
14:50 1017 30.03 846 24.98 30 86 26 8.6 47.5
14:55 1017 30.03 846 24.98 30.6 87.2 23 7.7 45.9
15:00 1017 30.03 846 24.98 30.7 87.2 24 8.2 46.7
15:05 1017 30.03 846 24.98 29.9 85.8 26 8.4 47.1
15:10 1017 30.03 846 24.98 30 85.9 24 7.7 45.8
15:15 1017 30.03 846 24.98 30.3 86.5 24 8 46.4
15:20 1017 30.03 846 24.98 30.2 86.4 25 8.5 47.2
15:25 1016 30 846 24.98 30 86 25 8.3 47
15:30 1016 30 846 24.98 29.9 85.9 25 8.1 46.5
15:35 1016 30 846 24.98 29.6 85.3 26 8.4 47.1
15:40 1016 30 846 24.98 29.8 85.6 25 8 46.5
15:45 1016 30 846 24.98 30.4 86.7 25 8.4 47.2
15:50 1016 30 846 24.98 29.9 85.8 28 9.9 49.9
15:55 1016 30 846 24.98 29.5 85.2 27 8.9 48
16:00 1016 30 845 24.95 29.4 84.9 26 8.4 47
16:05 1016 30 845 24.95 29.5 85 26 8.3 47
16:10 1016 30 845 24.95 29.4 84.9 26 8.4 47.1
16:15 1016 30 845 24.95 29.4 85 27 8.6 47.4
16:20 1016 30 845 24.95 29.4 84.9 26 8.2 46.7
16:25 1016 30 845 24.95 29.4 84.8 27 8.7 47.7
16:30 1016 30 845 24.95 29.1 84.4 29 9.6 49.3
16:35 1016 30 845 24.95 28.9 84.1 28 8.7 47.6
16:40 1016 30 845 24.95 28.8 83.8 31 10.1 50.2
16:45 1016 30 845 24.95 28.6 83.4 28 8.5 47.2
16:50 1016 30 845 24.95 28.4 83.2 28 8.6 47.5
16:55 1016 30 845 24.95 28.6 83.4 28 8.6 47.4
17:00 1016 30 845 24.95 28.6 83.5 29 9 48.2
17:05 1016 30 845 24.95 28.4 83.2 33 11 51.9
17:10 1016 30 845 24.95 28 82.4 35 11.4 52.5
17:15 1016 30 845 24.95 27.7 81.9 37 12.1 53.7
17:20 1016 30 845 24.95 27.3 81.1 38 11.8 53.2
17:25 1016 30 845 24.95 27 80.6 39 12.2 54
17:30 1016 30 845 24.95 26.6 79.9 39 11.6 52.8
17:35 1016 30 845 24.95 26.3 79.3 39 11.4 52.6
17:40 1016 30 845 24.95 26.3 79.4 38 11.2 52.1
17:45 1016 30 845 24.95 26.5 79.7 38 11.3 52.3
17:50 1016 30 845 24.95 26.7 80 38 11.5 52.7
17:55 1016 30 845 24.95 26.5 79.6 40 11.9 53.4
18:00 1016 30 845 24.95 26.4 79.5 41 12.1 53.8
18:05 1016 30 845 24.95 26.4 79.5 41 12.2 54
18:10 1016 30 845 24.95 26.3 79.4 41 12.1 53.8
18:15 1016 30 845 24.95 26.3 79.3 41 12.1 53.9
18:20 1016 30 845 24.95 26.2 79.2 41 12.3 54.1
18:25 1016 30 845 24.95 26.1 78.9 42 12.2 53.9
18:30 1016 30 845 24.95 25.9 78.6 43 12.7 54.9
18:35 1016 30 845 24.95 25.5 78 46 13.2 55.8
18:40 1016 30 846 24.98 25.3 77.6 47 13.4 56.1
18:45 1016 30 846 24.98 25.2 77.3 47 13.3 56
18:50 1016 30 846 24.98 25.1 77.1 48 13.5 56.3
18:55 1017 30.03 846 24.98 25.1 77.2 49 13.8 56.8
19:00 1017 30.03 846 24.98 25.2 77.3 38 10.3 50.5
19:05 1017 30.03 846 24.98 25.4 77.6 29 6.3 43.3
19:10 1017 30.03 846 24.98 25.4 77.8 29 6.2 43.2
19:15 1017 30.03 846 24.98 25.4 77.7 28 5.8 42.4
19:20 1017 30.03 846 24.98 25.2 77.3 28 5.8 42.4
19:25 1017 30.03 846 24.98 24.8 76.6 30 6.2 43.1
19:30 1017 30.03 846 24.98 24.4 76 30 5.9 42.6
19:35 1017 30.03 846 24.98 24.4 75.9 30 5.8 42.4
19:40 1017 30.03 846 24.98 24.3 75.8 30 5.7 42.2
19:45 1017 30.03 846 24.98 24.3 75.7 30 6 42.8
19:50 1017 30.03 846 24.98 24.1 75.3 31 6.2 43.2
19:55 1017 30.03 846 24.98 23.9 75 31 6.2 43.1
20:00 1017 30.03 846 24.98 23.9 75 32 6.4 43.5
20:05 1017 30.03 847 25.01 23.8 74.9 32 6.5 43.8
20:10 1017 30.03 846 24.98 23.9 75 32 6.2 43.2
20:15 1017 30.03 847 25.01 23.7 74.6 34 7.1 44.9
20:20 1017 30.03 847 25.01 23.2 73.7 34 6.6 44
20:25 1017 30.03 847 25.01 23 73.3 37 7.8 46
20:30 1018 30.06 847 25.01 22.3 72.2 39 7.9 46.3
20:35 1018 30.06 847 25.01 22 71.5 41 8.1 46.6
20:40 1018 30.06 847 25.01 22 71.6 40 8 46.3
20:45 1018 30.06 847 25.01 22.1 71.8 42 8.8 47.8
20:50 1018 30.06 847 25.01 21.8 71.3 44 9.1 48.4
20:55 1018 30.06 847 25.01 21.6 70.9 40 7.8 46
21:00 1018 30.06 847 25.01 21.8 71.3 40 7.7 45.8
21:05 1018 30.06 847 25.01 21.9 71.5 42 8.6 47.4
21:10 1018 30.06 847 25.01 21.9 71.4 41 8.3 46.9
21:15 1018 30.06 847 25.01 21.9 71.4 42 8.5 47.2
21:20 1018 30.06 847 25.01 21.9 71.3 43 9 48.1
21:25 1018 30.06 847 25.01 21.7 71.1 43 8.7 47.6
21:30 1018 30.06 847 25.01 21.7 71 43 8.6 47.4
21:35 1018 30.06 847 25.01 21.6 70.8 44 9.1 48.3
21:40 1018 30.06 847 25.01 21.4 70.5 44 8.8 47.8
21:45 1018 30.06 847 25.01 21.1 69.9 45 9 48.1
21:50 1018 30.06 847 25.01 20.9 69.7 46 8.9 48
21:55 1018 30.06 847 25.01 20.9 69.7 46 9 48.2
22:00 1018 30.06 847 25.01 20.9 69.6 46 9 48.3
22:05 1018 30.06 847 25.01 20.9 69.5 47 9.1 48.5
22:10 1018 30.06 847 25.01 20.9 69.6 45 8.5 47.4
22:15 1018 30.06 847 25.01 20.9 69.6 44 8.5 47.3
22:20 1018 30.06 847 25.01 20.8 69.4 45 8.5 47.4
22:25 1018 30.06 847 25.01 20.7 69.2 46 8.6 47.6
22:30 1018 30.06 847 25.01 20.5 68.9 47 9 48.1
22:35 1018 30.06 848 25.04 20.3 68.5 48 9 48.3
22:40 1018 30.06 848 25.04 20.1 68.2 47 8.6 47.5
22:45 1018 30.06 848 25.04 20 68.1 47 8.6 47.5
22:50 1018 30.06 848 25.04 19.9 67.9 47 8.3 46.9
22:55 1018 30.06 848 25.04 20 68 47 8.4 47.1
23:00 1018 30.06 848 25.04 20 68 48 8.8 47.9
23:05 1018 30.06 848 25.04 20 67.9 48 8.8 47.9
23:10 1018 30.06 847 25.01 19.7 67.4 50 9 48.2
23:15 1018 30.06 847 25.01 19.3 66.7 52 9.2 48.6
23:20 1018 30.06 848 25.04 19.1 66.3 51 8.9 48.1
23:25 1018 30.06 848 25.04 18.9 66.1 51 8.7 47.7
23:30 1018 30.06 848 25.04 19 66.2 49 8.1 46.5
23:35 1018 30.06 848 25.04 19.4 67 47 8 46.5
23:40 1018 30.06 848 25.04 19.6 67.2 48 8.4 47.1
23:45 1018 30.06 848 25.04 19.3 66.7 49 8.6 47.4
23:50 1018 30.06 847 25.01 19 66.3 52 9.1 48.4
23:55 1018 30.06 847 25.01 18.7 65.6 53 9.2 48.5
24:00 1018 30.06 847 25.01 18.4 65 55 9.3 48.8